createdAt,value
2023-02-15T00:01:56.498Z,110.37
2023-02-15T00:04:25.533Z,113.77
2023-02-15T00:06:52.559Z,115.93
2023-02-15T00:09:19.684Z,117.27
2023-02-15T00:11:52.932Z,108.80
2023-02-15T00:14:24.939Z,109.63
2023-02-15T00:16:54.241Z,110.30
2023-02-15T00:19:22.200Z,111.60
2023-02-15T00:21:49.795Z,87.20
2023-02-15T00:24:18.913Z,81.77
2023-02-15T00:26:46.853Z,89.10
2023-02-15T00:29:15.584Z,88.53
2023-02-15T00:31:43.421Z,85.50
2023-02-15T00:34:19.649Z,91.20
2023-02-15T00:36:47.409Z,99.10
2023-02-15T00:39:16.225Z,94.80
2023-02-15T00:41:45.111Z,93.03
2023-02-15T00:44:12.699Z,91.73
2023-02-15T00:46:39.960Z,83.10
2023-02-15T00:49:10.507Z,93.47
2023-02-15T00:51:39.003Z,81.43
2023-02-15T00:54:06.863Z,79.67
2023-02-15T00:56:34.426Z,78.13
2023-02-15T00:59:01.481Z,70.03
2023-02-15T01:01:28.609Z,63.43
2023-02-15T01:03:55.883Z,67.10
2023-02-15T01:06:23.165Z,57.27
2023-02-15T01:08:50.420Z,59.13
2023-02-15T01:11:23.360Z,60.87
2023-02-15T01:13:57.514Z,58.23
2023-02-15T01:16:27.051Z,54.87
2023-02-15T01:18:55.767Z,58.33
2023-02-15T01:21:25.252Z,60.47
2023-02-15T01:23:52.784Z,54.40
2023-02-15T01:26:21.297Z,60.30
2023-02-15T01:28:48.709Z,59.17
2023-02-15T01:31:19.516Z,57.80
2023-02-15T01:33:48.135Z,71.40
2023-02-15T01:36:15.675Z,69.47
2023-02-15T01:38:43.029Z,64.10
2023-02-15T01:41:27.270Z,64.57
2023-02-15T01:44:15.901Z,56.40
2023-02-15T01:46:50.983Z,62.07
2023-02-15T01:49:22.116Z,66.53
2023-02-15T01:51:51.218Z,62.33
2023-02-15T01:54:25.893Z,60.27
2023-02-15T01:56:55.413Z,61.57
2023-02-15T01:59:25.582Z,63.53
2023-02-15T02:01:56.192Z,62.40
2023-02-15T02:04:33.350Z,59.53
2023-02-15T02:07:01.178Z,63.27
2023-02-15T02:09:28.564Z,62.53
2023-02-15T02:11:55.796Z,63.23
2023-02-15T02:14:24.243Z,65.63
2023-02-15T02:17:07.794Z,64.07
2023-02-15T02:19:56.408Z,67.90
2023-02-15T02:22:32.849Z,69.53
2023-02-15T02:25:18.855Z,68.07
2023-02-15T02:27:58.170Z,68.00
2023-02-15T02:30:42.480Z,65.47
2023-02-15T02:33:18.621Z,70.33
2023-02-15T02:36:00.838Z,70.33
2023-02-15T02:38:52.879Z,66.57
2023-02-15T02:41:42.501Z,67.00
2023-02-15T02:44:46.999Z,74.37
2023-02-15T02:47:27.733Z,66.97
2023-02-15T02:50:02.692Z,61.17
2023-02-15T02:52:41.171Z,65.23
2023-02-15T02:55:20.765Z,52.53
2023-02-15T02:58:04.908Z,53.07
2023-02-15T03:00:37.615Z,53.33
2023-02-15T03:03:20.185Z,58.67
2023-02-15T03:05:50.371Z,58.30
2023-02-15T03:08:22.795Z,57.37
2023-02-15T03:10:54.802Z,55.67
2023-02-15T03:13:23.424Z,49.73
2023-02-15T03:16:10.661Z,55.87
2023-02-15T03:18:44.288Z,53.97
2023-02-15T03:21:23.245Z,56.53
2023-02-15T03:24:00.773Z,60.37
2023-02-15T03:26:30.136Z,62.10
2023-02-15T03:29:00.424Z,63.47
2023-02-15T03:31:32.649Z,61.93
2023-02-15T03:34:03.937Z,63.53
2023-02-15T03:36:40.071Z,65.40
2023-02-15T03:39:36.387Z,63.20
2023-02-15T03:42:12.292Z,64.13
2023-02-15T03:44:51.645Z,59.70
2023-02-15T03:47:23.366Z,63.63
2023-02-15T03:50:01.001Z,59.43
2023-02-15T03:52:31.100Z,56.50
2023-02-15T03:54:58.638Z,60.97
2023-02-15T03:57:48.251Z,60.73
2023-02-15T04:00:38.324Z,63.37
2023-02-15T04:03:32.318Z,60.37
2023-02-15T04:06:01.218Z,63.77
2023-02-15T04:08:48.480Z,62.43
2023-02-15T04:11:16.041Z,58.63
2023-02-15T04:13:43.100Z,61.80
2023-02-15T04:16:10.623Z,61.03
2023-02-15T04:19:01.593Z,61.50
2023-02-15T04:21:50.109Z,58.57
2023-02-15T04:24:36.249Z,57.67
2023-02-15T04:27:05.513Z,57.10
2023-02-15T04:29:33.052Z,56.23
2023-02-15T04:32:01.830Z,58.63
2023-02-15T04:34:28.904Z,58.47
2023-02-15T04:36:56.318Z,59.03
2023-02-15T04:39:23.419Z,56.27
2023-02-15T04:41:50.658Z,57.70
2023-02-15T04:44:17.674Z,54.40
2023-02-15T04:46:44.711Z,53.67
2023-02-15T04:49:11.809Z,54.23
2023-02-15T04:51:38.843Z,51.57
2023-02-15T04:54:06.343Z,58.83
2023-02-15T04:56:35.432Z,56.93
2023-02-15T04:59:02.644Z,56.40
2023-02-15T05:01:29.698Z,52.70
2023-02-15T05:03:57.087Z,57.83
2023-02-15T05:06:24.207Z,62.30
2023-02-15T05:08:51.666Z,55.47
2023-02-15T05:11:18.833Z,61.03
2023-02-15T05:13:45.867Z,58.57
2023-02-15T05:16:13.049Z,53.40
2023-02-15T05:18:40.258Z,57.40
2023-02-15T05:21:07.418Z,57.17
2023-02-15T05:23:34.657Z,57.57
2023-02-15T05:26:20.086Z,59.43
2023-02-15T05:28:47.057Z,59.07
2023-02-15T05:31:20.097Z,59.67
2023-02-15T05:33:47.877Z,54.70
2023-02-15T05:36:15.530Z,58.73
2023-02-15T05:38:42.681Z,53.50
2023-02-15T05:41:11.537Z,52.20
2023-02-15T05:43:39.781Z,59.90
2023-02-15T05:46:07.942Z,64.90
2023-02-15T05:48:35.526Z,60.17
2023-02-15T05:51:11.143Z,60.57
2023-02-15T05:53:39.548Z,60.77
2023-02-15T05:56:08.733Z,56.77
2023-02-15T05:58:40.571Z,52.87
2023-02-15T06:01:18.536Z,62.70
2023-02-15T06:03:46.896Z,60.97
2023-02-15T06:06:14.466Z,60.53
2023-02-15T06:08:41.896Z,58.97
2023-02-15T06:11:09.230Z,59.50
2023-02-15T06:13:38.604Z,62.17
2023-02-15T06:16:07.476Z,60.40
2023-02-15T06:18:35.273Z,57.53
2023-02-15T06:21:02.471Z,60.67
2023-02-15T06:23:29.661Z,55.90
2023-02-15T06:25:56.820Z,60.27
2023-02-15T06:28:25.245Z,60.20
2023-02-15T06:30:53.301Z,61.27
2023-02-15T06:33:20.510Z,61.37
2023-02-15T06:35:47.853Z,71.80
2023-02-15T06:38:14.834Z,62.27
2023-02-15T06:40:41.875Z,65.20
2023-02-15T06:43:08.871Z,58.00
2023-02-15T06:45:35.895Z,61.67
2023-02-15T06:48:02.954Z,62.60
2023-02-15T06:50:29.971Z,61.03
2023-02-15T06:52:58.279Z,60.60
2023-02-15T06:55:25.805Z,70.73
2023-02-15T06:57:53.315Z,63.40
2023-02-15T07:00:20.671Z,64.03
2023-02-15T07:02:47.600Z,65.77
2023-02-15T07:05:14.993Z,58.47
2023-02-15T07:07:42.164Z,65.80
2023-02-15T07:10:09.631Z,60.67
2023-02-15T07:12:42.566Z,61.17
2023-02-15T07:15:12.108Z,62.27
2023-02-15T07:17:39.934Z,62.67
2023-02-15T07:20:13.510Z,61.33
2023-02-15T07:22:40.663Z,62.20
2023-02-15T07:25:09.889Z,57.00
2023-02-15T07:27:37.422Z,57.07
2023-02-15T07:30:07.283Z,60.67
2023-02-15T07:32:34.972Z,60.73
2023-02-15T07:35:02.190Z,60.13
2023-02-15T07:37:29.512Z,50.80
2023-02-15T07:39:56.662Z,55.20
2023-02-15T07:42:23.720Z,58.07
2023-02-15T07:44:51.961Z,60.93
2023-02-15T07:47:19.075Z,47.80
2023-02-15T07:49:46.333Z,50.77
2023-02-15T07:52:13.588Z,53.20
2023-02-15T07:54:40.663Z,45.27
2023-02-15T07:57:07.899Z,51.80
2023-02-15T07:59:34.878Z,44.33
2023-02-15T08:02:01.945Z,50.38
2023-02-15T08:04:29.009Z,45.40
2023-02-15T08:06:56.247Z,43.47
2023-02-15T08:09:23.503Z,44.77
2023-02-15T08:11:50.821Z,41.03
2023-02-15T08:14:20.068Z,39.07
2023-02-15T08:16:49.924Z,35.65
2023-02-15T08:19:18.718Z,37.45
2023-02-15T08:21:48.979Z,33.80
2023-02-15T08:24:18.690Z,33.00
2023-02-15T08:26:47.752Z,36.03
2023-02-15T08:29:16.993Z,33.85
2023-02-15T08:31:44.505Z,35.70
2023-02-15T08:34:14.793Z,34.08
2023-02-15T08:36:43.002Z,33.70
2023-02-15T08:39:10.033Z,32.55
2023-02-15T08:41:38.949Z,33.28
2023-02-15T08:44:08.183Z,30.95
2023-02-15T08:46:37.797Z,33.38
2023-02-15T08:49:05.656Z,34.72
2023-02-15T08:51:35.177Z,34.90
2023-02-15T08:54:05.313Z,35.08
2023-02-15T08:56:38.509Z,35.50
2023-02-15T08:59:06.732Z,34.45
2023-02-15T09:01:35.972Z,32.72
2023-02-15T09:04:06.324Z,30.92
2023-02-15T09:06:34.100Z,32.40
2023-02-15T09:09:01.582Z,33.58
2023-02-15T09:11:30.499Z,30.52
2023-02-15T09:14:03.371Z,26.83
2023-02-15T09:16:33.859Z,28.60
2023-02-15T09:19:05.792Z,31.80
2023-02-15T09:21:34.659Z,32.08
2023-02-15T09:24:04.196Z,32.65
2023-02-15T09:26:32.909Z,34.25
2023-02-15T09:29:02.665Z,32.53
2023-02-15T09:31:37.956Z,35.00
2023-02-15T09:34:05.092Z,32.60
2023-02-15T09:36:37.776Z,32.30
2023-02-15T09:39:08.773Z,33.05
2023-02-15T09:41:56.937Z,29.80
2023-02-15T09:44:35.369Z,28.92
2023-02-15T09:47:18.499Z,28.95
2023-02-15T09:50:13.811Z,33.85
2023-02-15T09:52:49.926Z,33.45
2023-02-15T09:55:17.207Z,29.50
2023-02-15T09:58:26.490Z,32.33
2023-02-15T10:00:59.276Z,34.50
2023-02-15T10:03:32.276Z,34.20
2023-02-15T10:06:16.892Z,39.67
2023-02-15T10:08:56.495Z,44.22
2023-02-15T10:11:47.214Z,43.72
2023-02-15T10:14:41.735Z,42.53
2023-02-15T10:17:17.253Z,51.33
2023-02-15T10:20:00.662Z,46.00
2023-02-15T10:23:23.240Z,46.50
2023-02-15T10:26:12.368Z,46.95
2023-02-15T10:28:53.296Z,48.33
2023-02-15T10:31:51.884Z,44.53
2023-02-15T10:34:25.149Z,42.60
2023-02-15T10:37:07.177Z,44.85
2023-02-15T10:39:40.083Z,52.83
2023-02-15T10:42:55.629Z,47.58
2023-02-15T10:45:25.626Z,47.47
2023-02-15T10:48:10.720Z,47.08
2023-02-15T10:50:56.478Z,47.22
2023-02-15T10:53:44.526Z,48.03
2023-02-15T10:56:23.359Z,45.13
2023-02-15T10:59:11.853Z,46.63
2023-02-15T11:01:50.843Z,49.72
2023-02-15T11:04:18.164Z,46.78
2023-02-15T11:06:54.813Z,49.55
2023-02-15T11:09:25.228Z,50.88
2023-02-15T11:11:56.628Z,48.25
2023-02-15T11:14:42.287Z,53.40
2023-02-15T11:17:19.673Z,53.97
2023-02-15T11:19:58.414Z,59.28
2023-02-15T11:22:25.961Z,55.20
2023-02-15T11:24:53.163Z,56.05
2023-02-15T11:27:30.827Z,53.10
2023-02-15T11:30:11.921Z,52.38
2023-02-15T11:32:44.408Z,54.38
2023-02-15T11:35:11.463Z,55.47
2023-02-15T11:37:49.735Z,55.30
2023-02-15T11:40:29.519Z,55.70
2023-02-15T11:42:59.766Z,53.90
2023-02-15T11:45:35.554Z,52.05
2023-02-15T11:48:10.761Z,50.80
2023-02-15T11:50:38.226Z,49.28
2023-02-15T11:53:28.653Z,53.05
2023-02-15T11:55:56.628Z,53.05
2023-02-15T11:58:45.492Z,50.67
2023-02-15T12:01:24.545Z,53.70
2023-02-15T12:03:54.054Z,57.33
2023-02-15T12:06:28.537Z,50.72
2023-02-15T12:09:26.652Z,56.35
2023-02-15T12:11:53.842Z,52.83
2023-02-15T12:14:21.366Z,60.30
2023-02-15T12:16:52.095Z,54.28
2023-02-15T12:19:25.796Z,55.53
2023-02-15T12:21:54.278Z,58.83
2023-02-15T12:24:34.202Z,60.55
2023-02-15T12:27:14.827Z,57.45
2023-02-15T12:30:03.709Z,58.22
2023-02-15T12:32:37.146Z,58.85
2023-02-15T12:35:15.600Z,53.83
2023-02-15T12:37:56.349Z,55.90
2023-02-15T12:40:31.508Z,58.17
2023-02-15T12:42:59.562Z,54.65
2023-02-15T12:45:32.045Z,56.17
2023-02-15T12:48:15.045Z,54.67
2023-02-15T12:50:46.489Z,51.47
2023-02-15T12:53:21.539Z,52.53
2023-02-15T12:55:57.258Z,57.28
2023-02-15T12:58:43.310Z,53.83
2023-02-15T13:01:10.711Z,53.67
2023-02-15T13:03:40.630Z,53.47
2023-02-15T13:06:09.034Z,57.38
2023-02-15T13:08:47.367Z,54.80
2023-02-15T13:11:23.311Z,51.00
2023-02-15T13:14:00.296Z,54.03
2023-02-15T13:16:37.632Z,53.42
2023-02-15T13:19:30.418Z,53.40
2023-02-15T13:21:58.585Z,51.83
2023-02-15T13:24:30.845Z,49.72
2023-02-15T13:27:13.151Z,57.85
2023-02-15T13:29:45.717Z,55.45
2023-02-15T13:32:38.099Z,49.97
2023-02-15T13:35:08.225Z,54.50
2023-02-15T13:37:51.376Z,54.58
2023-02-15T13:40:46.361Z,54.42
2023-02-15T13:43:13.555Z,52.55
2023-02-15T13:45:59.562Z,54.15
2023-02-15T13:48:46.038Z,52.15
2023-02-15T13:51:54.573Z,51.00
2023-02-15T13:54:33.647Z,52.15
2023-02-15T13:57:09.800Z,50.47
2023-02-15T14:00:09.533Z,53.75
2023-02-15T14:03:10.194Z,49.42
2023-02-15T14:05:55.944Z,56.08
2023-02-15T14:08:53.058Z,46.58
2023-02-15T14:11:26.328Z,55.08
2023-02-15T14:13:53.494Z,54.28
2023-02-15T14:17:07.543Z,54.03
2023-02-15T14:19:37.795Z,58.60
2023-02-15T14:22:12.052Z,51.22
2023-02-15T14:24:47.646Z,54.20
2023-02-15T14:27:17.828Z,53.15
2023-02-15T14:29:56.959Z,49.40
2023-02-15T14:32:39.781Z,54.13
2023-02-15T14:35:19.279Z,50.83
2023-02-15T14:38:17.680Z,53.50
2023-02-15T14:41:03.762Z,56.60
2023-02-15T14:43:50.240Z,50.47
2023-02-15T14:46:35.409Z,55.45
2023-02-15T14:49:19.376Z,52.22
2023-02-15T14:51:51.199Z,56.78
2023-02-15T14:54:18.423Z,56.83
2023-02-15T14:57:08.185Z,54.17
2023-02-15T14:59:59.218Z,54.78
2023-02-15T15:02:49.972Z,54.83
2023-02-15T15:05:34.312Z,57.50
2023-02-15T15:08:04.748Z,52.90
2023-02-15T15:10:46.861Z,52.47
2023-02-15T15:13:32.180Z,52.80
2023-02-15T15:16:32.887Z,56.92
2023-02-15T15:19:00.672Z,57.50
2023-02-15T15:21:58.067Z,57.42
2023-02-15T15:24:45.473Z,57.53
2023-02-15T15:27:46.814Z,56.28
2023-02-15T15:30:20.438Z,55.15
2023-02-15T15:32:56.716Z,58.30
2023-02-15T15:35:32.936Z,52.28
2023-02-15T15:37:59.954Z,53.38
2023-02-15T15:40:27.020Z,55.22
2023-02-15T15:43:33.995Z,56.35
2023-02-15T15:49:29.639Z,54.00
2023-02-15T15:51:57.167Z,56.22
2023-02-15T15:54:27.335Z,54.58
2023-02-15T15:56:58.947Z,58.38
2023-02-15T15:59:29.637Z,54.58
2023-02-15T16:01:57.654Z,60.35
2023-02-15T16:04:33.504Z,58.35
2023-02-15T16:07:18.045Z,60.45
2023-02-15T16:10:04.642Z,58.90
2023-02-15T16:12:38.106Z,60.20
2023-02-15T16:15:18.541Z,59.47
2023-02-15T16:17:48.671Z,63.25
2023-02-15T16:20:34.947Z,62.97
2023-02-15T16:23:32.669Z,61.22
2023-02-15T16:26:33.667Z,65.15
2023-02-15T16:29:02.465Z,61.50
2023-02-15T16:31:29.756Z,60.10
2023-02-15T16:33:57.080Z,65.90
2023-02-15T16:36:26.828Z,61.05
2023-02-15T16:38:54.065Z,61.45
2023-02-15T16:41:29.672Z,67.22
2023-02-15T16:44:04.289Z,69.50
2023-02-15T16:46:37.389Z,69.50
2023-02-15T16:49:12.736Z,65.38
2023-02-15T16:51:44.796Z,61.42
2023-02-15T16:54:22.011Z,67.97
2023-02-15T16:56:49.631Z,67.68
2023-02-15T16:59:40.859Z,68.50
2023-02-15T17:02:49.240Z,72.75
2023-02-15T17:05:13.128Z,66.63
2023-02-15T17:07:42.474Z,70.57
2023-02-15T17:10:30.225Z,69.20
2023-02-15T17:13:10.512Z,66.43
2023-02-15T17:15:43.524Z,66.93
2023-02-15T17:18:18.879Z,72.70
2023-02-15T17:20:48.539Z,69.18
2023-02-15T17:23:35.799Z,66.25
2023-02-15T17:26:20.960Z,67.97
2023-02-15T17:28:50.321Z,76.83
2023-02-15T17:31:19.735Z,69.72
2023-02-15T17:33:47.974Z,74.15
2023-02-15T17:36:24.592Z,77.17
2023-02-15T17:39:03.525Z,75.30
2023-02-15T17:41:34.385Z,80.85
2023-02-15T17:44:04.183Z,80.17
2023-02-15T17:46:36.977Z,84.13
2023-02-15T17:49:04.832Z,80.47
2023-02-15T17:51:35.574Z,77.47
2023-02-15T17:54:22.023Z,78.73
2023-02-15T17:56:49.282Z,77.70
2023-02-15T17:59:16.529Z,82.20
2023-02-15T18:02:08.340Z,79.73
2023-02-15T18:04:55.577Z,79.93
2023-02-15T18:07:41.474Z,84.63
2023-02-15T18:10:38.310Z,80.47
2023-02-15T18:13:05.474Z,82.77
2023-02-15T18:15:32.777Z,84.13
2023-02-15T18:18:00.257Z,85.23
2023-02-15T18:20:37.467Z,87.63
2023-02-15T18:23:04.745Z,90.30
2023-02-15T18:25:31.959Z,93.23
2023-02-15T18:27:58.973Z,90.97
2023-02-15T18:30:27.098Z,93.70
2023-02-15T18:32:59.555Z,103.53
2023-02-15T18:35:31.252Z,100.10
2023-02-15T18:38:00.830Z,100.10
2023-02-15T18:40:29.712Z,105.63
2023-02-15T18:42:57.524Z,96.90
2023-02-15T18:45:28.785Z,100.87
2023-02-15T18:47:56.265Z,124.70
2023-02-15T18:50:27.406Z,113.60
2023-02-15T18:52:54.823Z,112.30
2023-02-15T18:55:25.036Z,115.40
2023-02-15T18:57:54.169Z,115.60
2023-02-15T19:00:30.375Z,125.57
2023-02-15T19:02:58.099Z,117.90
2023-02-15T19:05:27.790Z,119.90
2023-02-15T19:07:55.693Z,124.43
2023-02-15T19:10:28.610Z,110.57
2023-02-15T19:12:56.860Z,114.50
2023-02-15T19:15:30.577Z,116.33
2023-02-15T19:17:58.113Z,115.53
2023-02-15T19:20:29.807Z,129.53
2023-02-15T19:22:58.595Z,124.20
2023-02-15T19:25:28.900Z,122.07
2023-02-15T19:27:57.307Z,132.20
2023-02-15T19:30:27.973Z,123.03
2023-02-15T19:32:55.675Z,117.40
2023-02-15T19:35:26.357Z,117.60
2023-02-15T19:37:55.764Z,119.53
2023-02-15T19:40:29.137Z,128.33
2023-02-15T19:42:56.825Z,117.50
2023-02-15T19:45:29.028Z,115.80
2023-02-15T19:47:57.029Z,109.50
2023-02-15T19:50:31.187Z,110.13
2023-02-15T19:52:58.585Z,109.03
2023-02-15T19:55:31.720Z,107.23
2023-02-15T19:58:00.623Z,110.60
2023-02-15T20:00:29.252Z,116.70
2023-02-15T20:02:57.985Z,108.60
2023-02-15T20:05:29.459Z,118.93
2023-02-15T20:07:57.403Z,119.63
2023-02-15T20:10:28.500Z,126.07
2023-02-15T20:12:56.090Z,117.07
2023-02-15T20:15:24.963Z,117.40
2023-02-15T20:17:52.606Z,122.30
2023-02-15T20:20:21.095Z,123.63
2023-02-15T20:22:50.528Z,128.37
2023-02-15T20:25:23.039Z,141.53
2023-02-15T20:27:50.624Z,142.43
2023-02-15T20:30:22.554Z,141.20
2023-02-15T20:32:50.473Z,151.00
2023-02-15T20:35:21.793Z,150.97
2023-02-15T20:37:53.242Z,156.60
2023-02-15T20:40:24.377Z,166.00
2023-02-15T20:42:51.690Z,162.00
2023-02-15T20:45:28.891Z,163.47
2023-02-15T20:47:57.061Z,191.70
2023-02-15T20:50:27.691Z,230.60
2023-02-15T20:52:57.718Z,256.20
2023-02-15T20:55:27.735Z,296.70
2023-02-15T20:57:55.396Z,299.03
2023-02-15T21:00:25.006Z,328.97
2023-02-15T21:02:55.441Z,305.50
2023-02-15T21:05:30.187Z,323.40
2023-02-15T21:07:57.871Z,302.07
2023-02-15T21:10:27.913Z,323.80
2023-02-15T21:12:55.733Z,313.67
2023-02-15T21:15:36.229Z,337.47
2023-02-15T21:18:11.629Z,334.77
2023-02-15T21:20:46.645Z,316.73
2023-02-15T21:23:16.696Z,321.20
2023-02-15T21:25:44.807Z,336.47
2023-02-15T21:28:18.951Z,328.73
2023-02-15T21:30:47.080Z,334.67
2023-02-15T21:33:14.336Z,334.83
2023-02-15T21:35:42.332Z,327.20
2023-02-15T21:38:15.331Z,325.97
2023-02-15T21:40:43.514Z,326.10
2023-02-15T21:43:40.341Z,304.30
2023-02-15T21:46:35.867Z,298.77
2023-02-15T21:49:03.689Z,294.47
2023-02-15T21:51:50.078Z,305.70
2023-02-15T21:54:19.653Z,307.43
2023-02-15T21:56:48.832Z,304.60
2023-02-15T21:59:18.129Z,317.63
2023-02-15T22:01:49.515Z,322.60
2023-02-15T22:04:28.790Z,321.77
2023-02-15T22:06:56.703Z,318.53
2023-02-15T22:09:27.116Z,310.67
2023-02-15T22:11:55.189Z,314.87
2023-02-15T22:14:41.718Z,318.47
2023-02-15T22:17:14.814Z,310.93
2023-02-15T22:19:42.448Z,318.37
2023-02-15T22:22:09.606Z,323.20
2023-02-15T22:24:36.664Z,318.50
2023-02-15T22:27:04.554Z,323.00
2023-02-15T22:29:32.157Z,341.07
2023-02-15T22:31:59.785Z,360.00
2023-02-15T22:34:29.738Z,381.13
2023-02-15T22:36:57.245Z,392.47
2023-02-15T22:39:25.566Z,413.73
2023-02-15T22:41:53.691Z,397.50
2023-02-15T22:44:26.991Z,403.13
2023-02-15T22:46:54.479Z,384.93
2023-02-15T22:49:21.813Z,394.50
2023-02-15T22:51:50.012Z,372.30
2023-02-15T22:54:18.387Z,357.10
2023-02-15T22:56:53.477Z,370.60
2023-02-15T22:59:29.904Z,349.80
2023-02-15T23:01:57.769Z,348.57
2023-02-15T23:04:29.827Z,347.97
2023-02-15T23:06:59.497Z,361.97
2023-02-15T23:09:26.790Z,346.47
2023-02-15T23:11:54.479Z,334.77
2023-02-15T23:14:34.410Z,350.43
2023-02-15T23:17:02.016Z,357.67
2023-02-15T23:19:29.181Z,344.87
2023-02-15T23:21:56.198Z,346.20
2023-02-15T23:24:29.174Z,345.53
2023-02-15T23:27:19.867Z,341.50
2023-02-15T23:29:47.073Z,334.17
2023-02-15T23:32:15.148Z,344.67
2023-02-15T23:34:43.310Z,344.33
2023-02-15T23:37:13.195Z,334.03
2023-02-15T23:39:58.967Z,326.07
2023-02-15T23:42:29.528Z,337.77
2023-02-15T23:44:57.403Z,341.53
2023-02-15T23:47:51.349Z,349.57
2023-02-15T23:50:20.184Z,351.43
2023-02-15T23:52:47.381Z,347.33
2023-02-15T23:55:15.398Z,328.57
2023-02-15T23:57:43.747Z,325.80
